K-storm — V2DV8 — position and weather

sailwx.info

Track history (hours):
 
Tides and Currents Weather Stations Pressure Air Temp Water Temp Dewpoint Dewpoint Depression Visibility Wind Speed Wind Dir Waves Ship Positions

K-storm

Last reported at 2016-Sep-23 17:34 UTC. Time now 2016-Sep-27 15:36 UTC.
Position N 25°36' W 079°41'.

Length 139 m; draft 6.3 m.

Type: Cargo ship. MMSI: 305350000.

Date/timePositionNaut miles runAvg speedWind from/ knotsBaromVisibWave heightAir tempDewpointWater temp
2016-Sep-23 17:34N 25°36' W 079°41'1313.1
2016-Sep-23 16:33N 25°48' W 079°46'1413.8
2016-Sep-23 15:33N 25°57' W 079°58'11 5.2
2016-Sep-23 13:31N 26°04' W 080°07'0 0.0
2016-Sep-23 09:33N 26°04' W 080°07'0 0.1
2016-Sep-23 06:31N 26°04' W 080°07'0 0.0
2016-Sep-23 04:31N 26°04' W 080°07'0 0.0
2016-Sep-23 03:30N 26°04' W 080°07'0 0.3
2016-Sep-23 02:31N 26°04' W 080°07'0 0.0
2016-Sep-23 01:31N 26°04' W 080°07'0 0.0
2016-Sep-23 00:33N 26°04' W 080°07'0 0.0
2016-Sep-22 23:33N 26°04' W 080°07'0 0.0
2016-Sep-22 20:29N 26°04' W 080°07'0 0.0
2016-Sep-22 12:31N 26°04' W 080°07'0 0.0
2016-Sep-22 04:31N 26°04' W 080°07'0 0.0
2016-Sep-22 03:30N 26°04' W 080°07'0 0.0
2016-Sep-22 00:32N 26°04' W 080°07'0 0.0
2016-Sep-21 23:34N 26°04' W 080°07'4 4.1
2016-Sep-21 22:33N 26°06' W 080°03'21 7.0
2016-Sep-21 19:33N 25°50' W 079°48'  
2016-Sep-16 15:30N 25°30' W 079°40'3813.0
2016-Sep-16 12:34N 26°05' W 079°58'8 2.6
2016-Sep-16 09:32N 26°04' W 080°07'0 0.0
2016-Sep-16 07:25N 26°04' W 080°07'0 0.0
2016-Sep-16 03:30N 26°04' W 080°07'0 0.0
2016-Sep-16 02:32N 26°04' W 080°07'0 0.0
2016-Sep-16 00:25N 26°04' W 080°07'0 0.0
2016-Sep-15 22:33N 26°04' W 080°07'0 0.3
2016-Sep-15 21:31N 26°04' W 080°07'0 0.0
2016-Sep-15 20:31N 26°04' W 080°07'0 0.0
2016-Sep-15 18:33N 26°04' W 080°07'0 0.0
2016-Sep-15 12:33N 26°04' W 080°07'0 0.0
2016-Sep-15 11:27N 26°04' W 080°07'0 0.0
2016-Sep-15 04:33N 26°04' W 080°07'0 0.0
2016-Sep-15 03:33N 26°04' W 080°07'0 0.0
2016-Sep-15 01:32N 26°04' W 080°07'3 1.0
2016-Sep-14 22:34N 26°06' W 080°04'1111.2
2016-Sep-14 21:33N 25°58' W 079°55'  
Track history (hours):
 
Tides and Currents Weather Stations Pressure Air Temp Water Temp Dewpoint Dewpoint Depression Visibility Wind Speed Wind Dir Waves Ship Positions

K-storm

Last reported at 2016-Sep-23 17:34 UTC. Time now 2016-Sep-27 15:36 UTC.
Position N 25°36' W 079°41'.

Length 139 m; draft 6.3 m.

Type: Cargo ship. MMSI: 305350000.

Date/timePositionNaut miles runAvg speedWind from/ knotsBaromVisibWave heightAir tempDewpointWater temp
2016-Sep-23 17:34N 25°36' W 079°41'1313.1
2016-Sep-23 16:33N 25°48' W 079°46'1413.8
2016-Sep-23 15:33N 25°57' W 079°58'11 5.2
2016-Sep-23 13:31N 26°04' W 080°07'0 0.0
2016-Sep-23 09:33N 26°04' W 080°07'0 0.1
2016-Sep-23 06:31N 26°04' W 080°07'0 0.0
2016-Sep-23 04:31N 26°04' W 080°07'0 0.0
2016-Sep-23 03:30N 26°04' W 080°07'0 0.3
2016-Sep-23 02:31N 26°04' W 080°07'0 0.0
2016-Sep-23 01:31N 26°04' W 080°07'0 0.0
2016-Sep-23 00:33N 26°04' W 080°07'0 0.0
2016-Sep-22 23:33N 26°04' W 080°07'0 0.0
2016-Sep-22 20:29N 26°04' W 080°07'0 0.0
2016-Sep-22 12:31N 26°04' W 080°07'0 0.0
2016-Sep-22 04:31N 26°04' W 080°07'0 0.0
2016-Sep-22 03:30N 26°04' W 080°07'0 0.0
2016-Sep-22 00:32N 26°04' W 080°07'0 0.0
2016-Sep-21 23:34N 26°04' W 080°07'4 4.1
2016-Sep-21 22:33N 26°06' W 080°03'21 7.0
2016-Sep-21 19:33N 25°50' W 079°48'  
2016-Sep-16 15:30N 25°30' W 079°40'3813.0
2016-Sep-16 12:34N 26°05' W 079°58'8 2.6
2016-Sep-16 09:32N 26°04' W 080°07'0 0.0
2016-Sep-16 07:25N 26°04' W 080°07'0 0.0
2016-Sep-16 03:30N 26°04' W 080°07'0 0.0
2016-Sep-16 02:32N 26°04' W 080°07'0 0.0
2016-Sep-16 00:25N 26°04' W 080°07'0 0.0
2016-Sep-15 22:33N 26°04' W 080°07'0 0.3
2016-Sep-15 21:31N 26°04' W 080°07'0 0.0
2016-Sep-15 20:31N 26°04' W 080°07'0 0.0
2016-Sep-15 18:33N 26°04' W 080°07'0 0.0
2016-Sep-15 12:33N 26°04' W 080°07'0 0.0
2016-Sep-15 11:27N 26°04' W 080°07'0 0.0
2016-Sep-15 04:33N 26°04' W 080°07'0 0.0
2016-Sep-15 03:33N 26°04' W 080°07'0 0.0
2016-Sep-15 01:32N 26°04' W 080°07'3 1.0
2016-Sep-14 22:34N 26°06' W 080°04'1111.2
2016-Sep-14 21:33N 25°58' W 079°55'  

Dump ship's entire track history